Terminal Aerodrome Forecast
Issued by NWS

Home | Current Version | Previous Version | Text Only | Print | Product List | Glossary On
Versions: 1 2 3 4 5 6 7 8 9 10 11 12 13 14 15 16 17 18 19 20 21
000
FTUS44 KLUB 030655 AAA
TAFCDS
TAF AMD
KCDS 030655Z 0307/0406 16007KT P6SM VCSH SCT070 BKN100
      TEMPO 0308/0311 VRB25KT 6SM TSRA BKN040CB
     FM031200 17011KT P6SM FEW070 SCT150=

USA.gov is the U.S. government's official web portal to all federal, state and local government web resources and services.